Tzoanna Vi — SYHY — position and weather

sailwx.info

Track history (hours):
 
Tides and Currents Weather Stations Pressure Air Temp Water Temp Dewpoint Dewpoint Depression Visibility Wind Speed Wind Dir Waves Ship Positions

Tzoanna Vi

Last reported at 2016-Sep-27 19:33 UTC. Time now 2016-Sep-28 03:29 UTC.
Position N 40°38' E 022°55'.

Length 84 m; draft 3.5 m.

Type: Cargo ship. MMSI: 237991700.

Date/timePositionNaut miles runAvg speedWind from/ knotsBaromVisibWave heightAir tempDewpointWater temp
2016-Sep-27 19:33N 40°38' E 022°55'0 0.0
2016-Sep-27 14:33N 40°38' E 022°55'0 0.2
2016-Sep-27 13:33N 40°38' E 022°55'140 3.1
2016-Sep-25 16:32N 38°23' E 023°41'17 1.1
2016-Sep-25 00:33N 38°23' E 024°03'0 0.0
2016-Sep-24 22:33N 38°23' E 024°03'0 0.0
2016-Sep-24 21:33N 38°23' E 024°03'0 0.0
2016-Sep-24 19:33N 38°23' E 024°03'0 0.0
2016-Sep-24 18:33N 38°23' E 024°03'0 0.0
2016-Sep-24 17:33N 38°23' E 024°03'0 0.0
2016-Sep-24 16:31N 38°23' E 024°03'0 0.0
2016-Sep-24 03:33N 38°23' E 024°03'0 0.0
2016-Sep-24 02:33N 38°23' E 024°03'0 0.0
2016-Sep-24 01:33N 38°23' E 024°03'0 0.0
2016-Sep-24 00:33N 38°23' E 024°03'13 0.3
2016-Sep-21 22:33N 38°22' E 023°46'  
Track history (hours):
 
Tides and Currents Weather Stations Pressure Air Temp Water Temp Dewpoint Dewpoint Depression Visibility Wind Speed Wind Dir Waves Ship Positions

Tzoanna Vi

Last reported at 2016-Sep-27 19:33 UTC. Time now 2016-Sep-28 03:29 UTC.
Position N 40°38' E 022°55'.

Length 84 m; draft 3.5 m.

Type: Cargo ship. MMSI: 237991700.

Date/timePositionNaut miles runAvg speedWind from/ knotsBaromVisibWave heightAir tempDewpointWater temp
2016-Sep-27 19:33N 40°38' E 022°55'0 0.0
2016-Sep-27 14:33N 40°38' E 022°55'0 0.2
2016-Sep-27 13:33N 40°38' E 022°55'140 3.1
2016-Sep-25 16:32N 38°23' E 023°41'17 1.1
2016-Sep-25 00:33N 38°23' E 024°03'0 0.0
2016-Sep-24 22:33N 38°23' E 024°03'0 0.0
2016-Sep-24 21:33N 38°23' E 024°03'0 0.0
2016-Sep-24 19:33N 38°23' E 024°03'0 0.0
2016-Sep-24 18:33N 38°23' E 024°03'0 0.0
2016-Sep-24 17:33N 38°23' E 024°03'0 0.0
2016-Sep-24 16:31N 38°23' E 024°03'0 0.0
2016-Sep-24 03:33N 38°23' E 024°03'0 0.0
2016-Sep-24 02:33N 38°23' E 024°03'0 0.0
2016-Sep-24 01:33N 38°23' E 024°03'0 0.0
2016-Sep-24 00:33N 38°23' E 024°03'13 0.3
2016-Sep-21 22:33N 38°22' E 023°46'  

Dump ship's entire track history